sensor_id;sensor_type;location;lat;lon;timestamp;temperature;humidity
9699;DHT22;10089;47.876;8.346;2023-02-18T00:00:14;7.90;99.90
9699;DHT22;10089;47.876;8.346;2023-02-18T00:02:40;7.90;99.90
9699;DHT22;10089;47.876;8.346;2023-02-18T00:05:05;8.00;99.90
9699;DHT22;10089;47.876;8.346;2023-02-18T00:07:35;7.90;99.90
9699;DHT22;10089;47.876;8.346;2023-02-18T00:10:01;7.90;99.90
9699;DHT22;10089;47.876;8.346;2023-02-18T00:12:29;7.90;99.90
9699;DHT22;10089;47.876;8.346;2023-02-18T00:14:56;7.90;99.90
9699;DHT22;10089;47.876;8.346;2023-02-18T00:17:21;7.90;99.90
9699;DHT22;10089;47.876;8.346;2023-02-18T00:19:47;7.90;99.90
9699;DHT22;10089;47.876;8.346;2023-02-18T00:22:13;7.90;99.90
9699;DHT22;10089;47.876;8.346;2023-02-18T00:24:39;7.80;99.90
9699;DHT22;10089;47.876;8.346;2023-02-18T00:27:05;7.80;99.90
9699;DHT22;10089;47.876;8.346;2023-02-18T00:29:31;7.70;99.90
9699;DHT22;10089;47.876;8.346;2023-02-18T00:31:57;7.70;99.90
9699;DHT22;10089;47.876;8.346;2023-02-18T00:34:22;7.70;99.90
9699;DHT22;10089;47.876;8.346;2023-02-18T00:36:48;7.60;99.90
9699;DHT22;10089;47.876;8.346;2023-02-18T00:39:14;7.60;99.90
9699;DHT22;10089;47.876;8.346;2023-02-18T00:41:40;7.60;99.90
9699;DHT22;10089;47.876;8.346;2023-02-18T00:44:06;7.60;99.90
9699;DHT22;10089;47.876;8.346;2023-02-18T00:46:32;7.70;99.90
9699;DHT22;10089;47.876;8.346;2023-02-18T00:48:58;7.70;99.90
9699;DHT22;10089;47.876;8.346;2023-02-18T00:51:24;7.80;99.90
9699;DHT22;10089;47.876;8.346;2023-02-18T00:53:50;7.80;99.90
9699;DHT22;10089;47.876;8.346;2023-02-18T00:56:16;7.80;99.90
9699;DHT22;10089;47.876;8.346;2023-02-18T00:58:42;7.80;99.90
9699;DHT22;10089;47.876;8.346;2023-02-18T01:01:10;7.80;99.90
9699;DHT22;10089;47.876;8.346;2023-02-18T01:03:37;7.90;99.90
9699;DHT22;10089;47.876;8.346;2023-02-18T01:06:04;7.90;99.90
9699;DHT22;10089;47.876;8.346;2023-02-18T01:08:30;7.90;99.90
9699;DHT22;10089;47.876;8.346;2023-02-18T01:10:57;8.00;99.90
9699;DHT22;10089;47.876;8.346;2023-02-18T01:13:24;8.00;99.90
9699;DHT22;10089;47.876;8.346;2023-02-18T01:15:50;8.00;99.90
9699;DHT22;10089;47.876;8.346;2023-02-18T01:18:16;8.00;99.90
9699;DHT22;10089;47.876;8.346;2023-02-18T01:20:43;7.90;99.90
9699;DHT22;10089;47.876;8.346;2023-02-18T01:23:10;7.90;99.90
9699;DHT22;10089;47.876;8.346;2023-02-18T01:25:37;7.90;99.90
9699;DHT22;10089;47.876;8.346;2023-02-18T01:28:04;7.90;99.90
9699;DHT22;10089;47.876;8.346;2023-02-18T01:30:30;8.00;99.90
9699;DHT22;10089;47.876;8.346;2023-02-18T01:32:57;8.00;99.90
9699;DHT22;10089;47.876;8.346;2023-02-18T01:35:23;8.00;99.90
9699;DHT22;10089;47.876;8.346;2023-02-18T01:37:49;8.00;99.90
9699;DHT22;10089;47.876;8.346;2023-02-18T01:40:19;8.00;99.90
9699;DHT22;10089;47.876;8.346;2023-02-18T01:42:47;8.00;99.90
9699;DHT22;10089;47.876;8.346;2023-02-18T01:48:03;7.90;99.90
9699;DHT22;10089;47.876;8.346;2023-02-18T01:50:33;8.50;99.90
9699;DHT22;10089;47.876;8.346;2023-02-18T01:53:00;8.00;99.90
9699;DHT22;10089;47.876;8.346;2023-02-18T01:55:27;8.00;99.90
9699;DHT22;10089;47.876;8.346;2023-02-18T01:57:53;8.00;99.90
9699;DHT22;10089;47.876;8.346;2023-02-18T02:00:20;8.00;99.90
9699;DHT22;10089;47.876;8.346;2023-02-18T02:02:47;8.00;99.90
9699;DHT22;10089;47.876;8.346;2023-02-18T02:05:14;8.00;99.90
9699;DHT22;10089;47.876;8.346;2023-02-18T02:07:41;7.90;99.90
9699;DHT22;10089;47.876;8.346;2023-02-18T02:10:08;8.00;99.90
9699;DHT22;10089;47.876;8.346;2023-02-18T02:16:35;8.00;99.90
9699;DHT22;10089;47.876;8.346;2023-02-18T02:21:48;7.90;99.90
9699;DHT22;10089;47.876;8.346;2023-02-18T02:24:43;8.00;99.90
9699;DHT22;10089;47.876;8.346;2023-02-18T02:36:29;8.00;99.90
9699;DHT22;10089;47.876;8.346;2023-02-18T02:38:36;7.90;99.90
9699;DHT22;10089;47.876;8.346;2023-02-18T02:41:26;8.00;99.90
9699;DHT22;10089;47.876;8.346;2023-02-18T02:44:20;7.90;99.90
9699;DHT22;10089;47.876;8.346;2023-02-18T02:46:50;8.00;99.90
9699;DHT22;10089;47.876;8.346;2023-02-18T02:49:38;8.00;99.90
9699;DHT22;10089;47.876;8.346;2023-02-18T02:52:19;8.00;99.90
9699;DHT22;10089;47.876;8.346;2023-02-18T02:54:47;8.00;99.90
9699;DHT22;10089;47.876;8.346;2023-02-18T02:59:42;8.00;99.90
9699;DHT22;10089;47.876;8.346;2023-02-18T03:02:20;8.00;99.90
9699;DHT22;10089;47.876;8.346;2023-02-18T03:11:11;8.00;99.90
9699;DHT22;10089;47.876;8.346;2023-02-18T03:16:32;8.00;99.90
9699;DHT22;10089;47.876;8.346;2023-02-18T03:19:23;8.00;99.90
9699;DHT22;10089;47.876;8.346;2023-02-18T03:22:00;8.00;99.90
9699;DHT22;10089;47.876;8.346;2023-02-18T03:24:33;7.90;99.90
9699;DHT22;10089;47.876;8.346;2023-02-18T03:27:26;7.90;99.90
9699;DHT22;10089;47.876;8.346;2023-02-18T03:29:54;8.00;99.90
9699;DHT22;10089;47.876;8.346;2023-02-18T03:32:23;8.00;99.90
9699;DHT22;10089;47.876;8.346;2023-02-18T03:34:54;8.00;99.90
9699;DHT22;10089;47.876;8.346;2023-02-18T03:37:21;8.00;99.90
9699;DHT22;10089;47.876;8.346;2023-02-18T03:39:49;8.00;99.90
9699;DHT22;10089;47.876;8.346;2023-02-18T03:42:17;8.00;99.90
9699;DHT22;10089;47.876;8.346;2023-02-18T03:44:43;8.00;99.90
9699;DHT22;10089;47.876;8.346;2023-02-18T03:47:10;8.00;99.90
9699;DHT22;10089;47.876;8.346;2023-02-18T03:49:36;7.90;99.90
9699;DHT22;10089;47.876;8.346;2023-02-18T03:52:01;7.90;99.90
9699;DHT22;10089;47.876;8.346;2023-02-18T03:54:27;8.00;99.90
9699;DHT22;10089;47.876;8.346;2023-02-18T03:56:53;8.00;99.90
9699;DHT22;10089;47.876;8.346;2023-02-18T03:59:18;7.90;99.90
9699;DHT22;10089;47.876;8.346;2023-02-18T04:01:44;7.90;99.90
9699;DHT22;10089;47.876;8.346;2023-02-18T04:04:10;7.90;99.90
9699;DHT22;10089;47.876;8.346;2023-02-18T04:06:35;7.90;99.90
9699;DHT22;10089;47.876;8.346;2023-02-18T04:09:01;7.90;99.90
9699;DHT22;10089;47.876;8.346;2023-02-18T04:11:36;7.90;99.90
9699;DHT22;10089;47.876;8.346;2023-02-18T04:14:02;7.90;99.90
9699;DHT22;10089;47.876;8.346;2023-02-18T04:16:28;7.80;99.90
9699;DHT22;10089;47.876;8.346;2023-02-18T04:18:54;7.90;99.90
9699;DHT22;10089;47.876;8.346;2023-02-18T04:21:19;7.90;99.90
9699;DHT22;10089;47.876;8.346;2023-02-18T04:23:45;7.90;99.90
9699;DHT22;10089;47.876;8.346;2023-02-18T04:26:11;7.90;99.90
9699;DHT22;10089;47.876;8.346;2023-02-18T04:28:36;7.80;99.90
9699;DHT22;10089;47.876;8.346;2023-02-18T04:31:02;7.80;99.90
9699;DHT22;10089;47.876;8.346;2023-02-18T04:33:28;7.80;99.90
9699;DHT22;10089;47.876;8.346;2023-02-18T04:35:53;7.80;99.90
9699;DHT22;10089;47.876;8.346;2023-02-18T04:38:19;7.80;99.90
9699;DHT22;10089;47.876;8.346;2023-02-18T04:40:45;7.80;99.90
9699;DHT22;10089;47.876;8.346;2023-02-18T04:43:10;7.80;99.90
9699;DHT22;10089;47.876;8.346;2023-02-18T04:45:36;7.80;99.90
9699;DHT22;10089;47.876;8.346;2023-02-18T04:48:02;7.80;99.90
9699;DHT22;10089;47.876;8.346;2023-02-18T04:50:27;7.80;99.90
9699;DHT22;10089;47.876;8.346;2023-02-18T04:52:53;7.80;99.90
9699;DHT22;10089;47.876;8.346;2023-02-18T04:55:19;7.80;99.90
9699;DHT22;10089;47.876;8.346;2023-02-18T04:57:44;7.80;99.90
9699;DHT22;10089;47.876;8.346;2023-02-18T05:00:16;7.70;99.90
9699;DHT22;10089;47.876;8.346;2023-02-18T05:02:42;7.80;99.90
9699;DHT22;10089;47.876;8.346;2023-02-18T05:05:08;7.70;99.90
9699;DHT22;10089;47.876;8.346;2023-02-18T05:07:34;7.80;99.90
9699;DHT22;10089;47.876;8.346;2023-02-18T05:09:59;7.70;99.90
9699;DHT22;10089;47.876;8.346;2023-02-18T05:12:25;7.70;99.90
9699;DHT22;10089;47.876;8.346;2023-02-18T05:14:51;7.60;99.90
9699;DHT22;10089;47.876;8.346;2023-02-18T05:17:16;7.60;99.90
9699;DHT22;10089;47.876;8.346;2023-02-18T05:19:42;7.60;99.90
9699;DHT22;10089;47.876;8.346;2023-02-18T05:22:07;7.60;99.90
9699;DHT22;10089;47.876;8.346;2023-02-18T05:24:33;7.60;99.90
9699;DHT22;10089;47.876;8.346;2023-02-18T05:26:59;7.60;99.90
9699;DHT22;10089;47.876;8.346;2023-02-18T05:29:24;7.50;99.90
9699;DHT22;10089;47.876;8.346;2023-02-18T05:31:50;7.60;99.90
9699;DHT22;10089;47.876;8.346;2023-02-18T05:34:16;7.60;99.90
9699;DHT22;10089;47.876;8.346;2023-02-18T05:36:43;7.50;99.90
9699;DHT22;10089;47.876;8.346;2023-02-18T05:39:08;7.40;99.90
9699;DHT22;10089;47.876;8.346;2023-02-18T05:41:34;7.50;99.90
9699;DHT22;10089;47.876;8.346;2023-02-18T05:44:00;7.40;99.90
9699;DHT22;10089;47.876;8.346;2023-02-18T05:46:44;7.40;99.90
9699;DHT22;10089;47.876;8.346;2023-02-18T05:49:10;7.40;99.90
9699;DHT22;10089;47.876;8.346;2023-02-18T05:51:35;7.40;99.90
9699;DHT22;10089;47.876;8.346;2023-02-18T05:54:01;7.40;99.90
9699;DHT22;10089;47.876;8.346;2023-02-18T05:56:27;7.40;99.90
9699;DHT22;10089;47.876;8.346;2023-02-18T05:58:52;7.40;99.90
9699;DHT22;10089;47.876;8.346;2023-02-18T06:01:18;7.40;99.90
9699;DHT22;10089;47.876;8.346;2023-02-18T06:03:44;7.40;99.90
9699;DHT22;10089;47.876;8.346;2023-02-18T06:06:09;7.40;99.90
9699;DHT22;10089;47.876;8.346;2023-02-18T06:08:35;7.50;99.90
9699;DHT22;10089;47.876;8.346;2023-02-18T06:11:01;7.50;99.90
9699;DHT22;10089;47.876;8.346;2023-02-18T06:13:27;7.50;99.90
9699;DHT22;10089;47.876;8.346;2023-02-18T06:15:53;7.60;99.90
9699;DHT22;10089;47.876;8.346;2023-02-18T06:18:20;7.60;99.90
9699;DHT22;10089;47.876;8.346;2023-02-18T06:20:47;7.50;99.90
9699;DHT22;10089;47.876;8.346;2023-02-18T06:23:13;7.50;99.90
9699;DHT22;10089;47.876;8.346;2023-02-18T06:25:39;7.50;99.90
9699;DHT22;10089;47.876;8.346;2023-02-18T06:28:05;7.50;99.90
9699;DHT22;10089;47.876;8.346;2023-02-18T06:30:30;7.50;99.90
9699;DHT22;10089;47.876;8.346;2023-02-18T06:32:56;7.50;99.90
9699;DHT22;10089;47.876;8.346;2023-02-18T06:35:22;7.50;99.90
9699;DHT22;10089;47.876;8.346;2023-02-18T06:37:47;7.50;99.90
9699;DHT22;10089;47.876;8.346;2023-02-18T06:40:13;7.50;99.90
9699;DHT22;10089;47.876;8.346;2023-02-18T06:42:39;7.60;99.90
9699;DHT22;10089;47.876;8.346;2023-02-18T06:45:13;7.60;99.90
9699;DHT22;10089;47.876;8.346;2023-02-18T06:47:38;7.50;99.90
9699;DHT22;10089;47.876;8.346;2023-02-18T06:50:04;7.60;99.90
9699;DHT22;10089;47.876;8.346;2023-02-18T06:52:30;7.60;99.90
9699;DHT22;10089;47.876;8.346;2023-02-18T06:54:57;7.70;99.90
9699;DHT22;10089;47.876;8.346;2023-02-18T06:57:23;7.70;99.90
9699;DHT22;10089;47.876;8.346;2023-02-18T06:59:49;7.60;99.90
9699;DHT22;10089;47.876;8.346;2023-02-18T07:02:14;7.70;99.90
9699;DHT22;10089;47.876;8.346;2023-02-18T07:04:40;7.70;99.90
9699;DHT22;10089;47.876;8.346;2023-02-18T07:07:06;7.70;99.90
9699;DHT22;10089;47.876;8.346;2023-02-18T07:09:31;7.70;99.90
9699;DHT22;10089;47.876;8.346;2023-02-18T07:11:57;7.70;99.90
9699;DHT22;10089;47.876;8.346;2023-02-18T07:14:23;7.70;99.90
9699;DHT22;10089;47.876;8.346;2023-02-18T07:16:49;7.80;99.90
9699;DHT22;10089;47.876;8.346;2023-02-18T07:19:15;7.80;99.90
9699;DHT22;10089;47.876;8.346;2023-02-18T07:21:41;7.80;99.90
9699;DHT22;10089;47.876;8.346;2023-02-18T07:24:07;7.80;99.90
9699;DHT22;10089;47.876;8.346;2023-02-18T07:26:33;7.90;99.90
9699;DHT22;10089;47.876;8.346;2023-02-18T07:28:58;7.90;99.90
9699;DHT22;10089;47.876;8.346;2023-02-18T07:31:24;7.90;99.90
9699;DHT22;10089;47.876;8.346;2023-02-18T07:33:49;7.90;99.90
9699;DHT22;10089;47.876;8.346;2023-02-18T07:36:15;7.90;99.90
9699;DHT22;10089;47.876;8.346;2023-02-18T07:38:41;7.90;99.90
9699;DHT22;10089;47.876;8.346;2023-02-18T07:41:21;7.90;99.90
9699;DHT22;10089;47.876;8.346;2023-02-18T07:43:48;8.00;99.90
9699;DHT22;10089;47.876;8.346;2023-02-18T07:46:15;8.00;99.90
9699;DHT22;10089;47.876;8.346;2023-02-18T07:48:41;8.10;99.90
9699;DHT22;10089;47.876;8.346;2023-02-18T07:51:08;8.10;99.90
9699;DHT22;10089;47.876;8.346;2023-02-18T07:53:35;8.20;99.90
9699;DHT22;10089;47.876;8.346;2023-02-18T07:56:02;8.30;91.50
9699;DHT22;10089;47.876;8.346;2023-02-18T07:58:30;7.80;60.50
9699;DHT22;10089;47.876;8.346;2023-02-18T08:00:56;8.30;40.90
9699;DHT22;10089;47.876;8.346;2023-02-18T08:03:25;8.30;41.30
9699;DHT22;10089;47.876;8.346;2023-02-18T08:05:52;8.30;5.00
9699;DHT22;10089;47.876;8.346;2023-02-18T08:08:26;8.40;10.60
9699;DHT22;10089;47.876;8.346;2023-02-18T08:10:54;8.40;25.60
9699;DHT22;10089;47.876;8.346;2023-02-18T08:13:31;8.40;15.20
9699;DHT22;10089;47.876;8.346;2023-02-18T08:15:57;8.40;21.00
9699;DHT22;10089;47.876;8.346;2023-02-18T08:18:24;8.40;26.30
9699;DHT22;10089;47.876;8.346;2023-02-18T08:20:50;8.40;28.70
9699;DHT22;10089;47.876;8.346;2023-02-18T08:23:20;8.50;21.30
9699;DHT22;10089;47.876;8.346;2023-02-18T08:25:48;8.40;6.00
9699;DHT22;10089;47.876;8.346;2023-02-18T08:28:15;8.50;7.00
9699;DHT22;10089;47.876;8.346;2023-02-18T08:30:48;8.50;22.90
9699;DHT22;10089;47.876;8.346;2023-02-18T08:33:15;8.50;1.00
9699;DHT22;10089;47.876;8.346;2023-02-18T08:35:40;8.50;14.70
9699;DHT22;10089;47.876;8.346;2023-02-18T08:38:06;8.50;1.00
9699;DHT22;10089;47.876;8.346;2023-02-18T08:40:32;8.50;1.00
9699;DHT22;10089;47.876;8.346;2023-02-18T08:42:58;8.50;1.00
9699;DHT22;10089;47.876;8.346;2023-02-18T08:45:23;8.60;1.00
9699;DHT22;10089;47.876;8.346;2023-02-18T08:47:49;8.70;1.00
9699;DHT22;10089;47.876;8.346;2023-02-18T08:50:15;8.70;1.00
9699;DHT22;10089;47.876;8.346;2023-02-18T08:52:40;8.70;1.00
9699;DHT22;10089;47.876;8.346;2023-02-18T08:55:06;8.80;1.00
9699;DHT22;10089;47.876;8.346;2023-02-18T08:57:32;8.80;1.00
9699;DHT22;10089;47.876;8.346;2023-02-18T08:59:58;8.80;1.00
9699;DHT22;10089;47.876;8.346;2023-02-18T09:02:24;8.90;1.00
9699;DHT22;10089;47.876;8.346;2023-02-18T09:04:49;8.90;1.00
9699;DHT22;10089;47.876;8.346;2023-02-18T09:07:15;9.00;1.00
9699;DHT22;10089;47.876;8.346;2023-02-18T09:09:41;9.00;1.00
9699;DHT22;10089;47.876;8.346;2023-02-18T09:12:07;9.10;1.00
9699;DHT22;10089;47.876;8.346;2023-02-18T09:14:33;9.10;1.00
9699;DHT22;10089;47.876;8.346;2023-02-18T09:16:59;9.20;1.00
9699;DHT22;10089;47.876;8.346;2023-02-18T09:19:25;9.40;1.00
9699;DHT22;10089;47.876;8.346;2023-02-18T09:21:51;9.40;1.00
9699;DHT22;10089;47.876;8.346;2023-02-18T09:24:21;9.40;1.00
9699;DHT22;10089;47.876;8.346;2023-02-18T09:26:49;9.40;1.00
9699;DHT22;10089;47.876;8.346;2023-02-18T09:29:15;9.50;1.00
9699;DHT22;10089;47.876;8.346;2023-02-18T09:31:40;9.60;1.00
9699;DHT22;10089;47.876;8.346;2023-02-18T09:34:06;9.80;1.00
9699;DHT22;10089;47.876;8.346;2023-02-18T09:36:32;9.90;1.00
9699;DHT22;10089;47.876;8.346;2023-02-18T09:38:58;9.80;1.00
9699;DHT22;10089;47.876;8.346;2023-02-18T09:44:15;9.80;1.00
9699;DHT22;10089;47.876;8.346;2023-02-18T09:49:28;9.70;1.00
9699;DHT22;10089;47.876;8.346;2023-02-18T09:51:55;9.80;1.00
9699;DHT22;10089;47.876;8.346;2023-02-18T09:54:22;9.80;1.00
9699;DHT22;10089;47.876;8.346;2023-02-18T09:56:48;9.80;1.00
9699;DHT22;10089;47.876;8.346;2023-02-18T09:59:17;9.90;1.00
9699;DHT22;10089;47.876;8.346;2023-02-18T10:01:47;9.90;99.90
9699;DHT22;10089;47.876;8.346;2023-02-18T10:04:49;9.90;99.90
9699;DHT22;10089;47.876;8.346;2023-02-18T10:07:33;10.00;99.90
9699;DHT22;10089;47.876;8.346;2023-02-18T10:10:10;10.00;99.90
9699;DHT22;10089;47.876;8.346;2023-02-18T10:12:44;10.00;99.90
9699;DHT22;10089;47.876;8.346;2023-02-18T10:15:20;10.00;99.90
9699;DHT22;10089;47.876;8.346;2023-02-18T10:17:47;9.90;99.90
9699;DHT22;10089;47.876;8.346;2023-02-18T10:20:16;9.90;99.90
9699;DHT22;10089;47.876;8.346;2023-02-18T10:22:44;9.90;99.90
9699;DHT22;10089;47.876;8.346;2023-02-18T10:25:16;10.00;99.90
9699;DHT22;10089;47.876;8.346;2023-02-18T10:27:43;10.00;99.90
9699;DHT22;10089;47.876;8.346;2023-02-18T10:30:35;10.00;99.90
9699;DHT22;10089;47.876;8.346;2023-02-18T10:36:01;9.90;99.90
9699;DHT22;10089;47.876;8.346;2023-02-18T10:38:55;10.00;99.90
9699;DHT22;10089;47.876;8.346;2023-02-18T10:52:17;10.10;99.90
9699;DHT22;10089;47.876;8.346;2023-02-18T10:57:30;10.20;99.90
9699;DHT22;10089;47.876;8.346;2023-02-18T11:02:30;10.30;34.70
9699;DHT22;10089;47.876;8.346;2023-02-18T11:04:59;10.20;8.40
9699;DHT22;10089;47.876;8.346;2023-02-18T11:07:32;10.20;1.00
9699;DHT22;10089;47.876;8.346;2023-02-18T11:10:29;10.20;1.00
9699;DHT22;10089;47.876;8.346;2023-02-18T11:13:02;10.30;1.00
9699;DHT22;10089;47.876;8.346;2023-02-18T11:15:29;10.30;1.00
9699;DHT22;10089;47.876;8.346;2023-02-18T11:17:57;10.10;1.00
9699;DHT22;10089;47.876;8.346;2023-02-18T11:22:50;10.10;95.00
9699;DHT22;10089;47.876;8.346;2023-02-18T11:25:25;10.10;1.00
9699;DHT22;10089;47.876;8.346;2023-02-18T11:27:56;10.10;1.00
9699;DHT22;10089;47.876;8.346;2023-02-18T11:30:29;10.10;43.60
9699;DHT22;10089;47.876;8.346;2023-02-18T11:33:00;10.10;22.70
9699;DHT22;10089;47.876;8.346;2023-02-18T11:35:29;10.20;1.00
9699;DHT22;10089;47.876;8.346;2023-02-18T11:37:57;10.20;1.00
9699;DHT22;10089;47.876;8.346;2023-02-18T11:40:34;10.10;1.00
9699;DHT22;10089;47.876;8.346;2023-02-18T11:43:15;10.20;1.00
9699;DHT22;10089;47.876;8.346;2023-02-18T11:45:42;10.20;1.00
9699;DHT22;10089;47.876;8.346;2023-02-18T11:48:16;10.20;1.00
9699;DHT22;10089;47.876;8.346;2023-02-18T11:50:44;10.20;1.00
9699;DHT22;10089;47.876;8.346;2023-02-18T11:55:54;10.20;1.00
9699;DHT22;10089;47.876;8.346;2023-02-18T11:58:43;10.20;1.00
9699;DHT22;10089;47.876;8.346;2023-02-18T12:04:42;10.10;1.00
9699;DHT22;10089;47.876;8.346;2023-02-18T12:07:24;10.10;1.00
9699;DHT22;10089;47.876;8.346;2023-02-18T12:09:55;10.00;1.00
9699;DHT22;10089;47.876;8.346;2023-02-18T12:12:30;10.00;1.00
9699;DHT22;10089;47.876;8.346;2023-02-18T12:14:59;10.00;1.00
9699;DHT22;10089;47.876;8.346;2023-02-18T12:28:27;10.30;99.90
9699;DHT22;10089;47.876;8.346;2023-02-18T12:34:03;10.40;99.90
9699;DHT22;10089;47.876;8.346;2023-02-18T12:39:21;10.50;1.00
9699;DHT22;10089;47.876;8.346;2023-02-18T12:55:54;11.10;1.00
9699;DHT22;10089;47.876;8.346;2023-02-18T13:06:29;11.10;1.00
9699;DHT22;10089;47.876;8.346;2023-02-18T13:14:31;11.30;99.90
9699;DHT22;10089;47.876;8.346;2023-02-18T13:16:59;11.70;1.00
9699;DHT22;10089;47.876;8.346;2023-02-18T13:22:14;11.40;1.00
9699;DHT22;10089;47.876;8.346;2023-02-18T13:24:44;11.70;1.00
9699;DHT22;10089;47.876;8.346;2023-02-18T13:40:42;11.30;1.00
9699;DHT22;10089;47.876;8.346;2023-02-18T13:46:07;11.00;99.90
9699;DHT22;10089;47.876;8.346;2023-02-18T13:54:01;10.80;1.00
9699;DHT22;10089;47.876;8.346;2023-02-18T13:56:33;10.80;1.00
9699;DHT22;10089;47.876;8.346;2023-02-18T13:59:07;10.70;1.00
9699;DHT22;10089;47.876;8.346;2023-02-18T14:03:59;10.80;99.90
9699;DHT22;10089;47.876;8.346;2023-02-18T14:06:29;10.80;99.90
9699;DHT22;10089;47.876;8.346;2023-02-18T14:14:45;10.80;1.00
9699;DHT22;10089;47.876;8.346;2023-02-18T14:19:53;10.70;1.00
9699;DHT22;10089;47.876;8.346;2023-02-18T14:22:47;10.60;1.00
9699;DHT22;10089;47.876;8.346;2023-02-18T14:27:40;10.50;99.90
9699;DHT22;10089;47.876;8.346;2023-02-18T14:32:49;10.50;10.40
9699;DHT22;10089;47.876;8.346;2023-02-18T14:35:34;10.50;99.90
9699;DHT22;10089;47.876;8.346;2023-02-18T14:49:33;10.30;1.00
9699;DHT22;10089;47.876;8.346;2023-02-18T14:52:02;10.30;99.90
9699;DHT22;10089;47.876;8.346;2023-02-18T14:54:29;10.20;34.50
9699;DHT22;10089;47.876;8.346;2023-02-18T14:56:59;10.10;99.90
9699;DHT22;10089;47.876;8.346;2023-02-18T14:59:30;10.00;1.00
9699;DHT22;10089;47.876;8.346;2023-02-18T15:01:58;10.00;99.90
9699;DHT22;10089;47.876;8.346;2023-02-18T15:04:25;9.90;99.90
9699;DHT22;10089;47.876;8.346;2023-02-18T15:07:02;9.90;99.90
9699;DHT22;10089;47.876;8.346;2023-02-18T15:09:28;9.90;99.90
9699;DHT22;10089;47.876;8.346;2023-02-18T15:12:03;9.90;1.00
9699;DHT22;10089;47.876;8.346;2023-02-18T15:14:36;9.90;8.20
9699;DHT22;10089;47.876;8.346;2023-02-18T15:17:03;9.80;1.00
9699;DHT22;10089;47.876;8.346;2023-02-18T15:19:39;9.70;2.80
9699;DHT22;10089;47.876;8.346;2023-02-18T15:22:20;9.70;25.40
9699;DHT22;10089;47.876;8.346;2023-02-18T15:24:48;9.60;1.00
9699;DHT22;10089;47.876;8.346;2023-02-18T15:27:17;9.60;1.00
9699;DHT22;10089;47.876;8.346;2023-02-18T15:29:49;9.60;22.70
9699;DHT22;10089;47.876;8.346;2023-02-18T15:32:20;9.60;1.00
9699;DHT22;10089;47.876;8.346;2023-02-18T15:34:50;9.60;59.10
9699;DHT22;10089;47.876;8.346;2023-02-18T15:37:17;9.60;1.00
9699;DHT22;10089;47.876;8.346;2023-02-18T15:39:44;9.60;1.00
9699;DHT22;10089;47.876;8.346;2023-02-18T15:42:15;9.60;1.00
9699;DHT22;10089;47.876;8.346;2023-02-18T15:44:46;9.50;99.90
9699;DHT22;10089;47.876;8.346;2023-02-18T15:47:13;9.40;99.90
9699;DHT22;10089;47.876;8.346;2023-02-18T15:49:45;9.40;1.00
9699;DHT22;10089;47.876;8.346;2023-02-18T15:52:12;9.40;99.90
9699;DHT22;10089;47.876;8.346;2023-02-18T15:54:39;9.30;1.00
9699;DHT22;10089;47.876;8.346;2023-02-18T15:57:08;9.30;1.00
9699;DHT22;10089;47.876;8.346;2023-02-18T15:59:35;9.20;1.00
9699;DHT22;10089;47.876;8.346;2023-02-18T16:04:39;9.10;99.90
9699;DHT22;10089;47.876;8.346;2023-02-18T16:07:23;9.10;99.90
9699;DHT22;10089;47.876;8.346;2023-02-18T16:09:48;9.00;1.00
9699;DHT22;10089;47.876;8.346;2023-02-18T16:12:30;8.90;1.00
9699;DHT22;10089;47.876;8.346;2023-02-18T16:14:57;8.90;1.00
9699;DHT22;10089;47.876;8.346;2023-02-18T16:17:25;8.80;13.60
9699;DHT22;10089;47.876;8.346;2023-02-18T16:19:57;8.90;1.00
9699;DHT22;10089;47.876;8.346;2023-02-18T16:25:22;8.80;99.90
9699;DHT22;10089;47.876;8.346;2023-02-18T16:30:24;8.70;1.00
9699;DHT22;10089;47.876;8.346;2023-02-18T16:32:51;8.60;1.00
9699;DHT22;10089;47.876;8.346;2023-02-18T16:35:17;8.60;1.00
9699;DHT22;10089;47.876;8.346;2023-02-18T16:37:43;8.50;99.90
9699;DHT22;10089;47.876;8.346;2023-02-18T16:40:31;8.50;99.90
9699;DHT22;10089;47.876;8.346;2023-02-18T16:43:00;8.40;99.90
9699;DHT22;10089;47.876;8.346;2023-02-18T16:45:33;8.30;99.90
9699;DHT22;10089;47.876;8.346;2023-02-18T16:47:59;8.30;1.00
9699;DHT22;10089;47.876;8.346;2023-02-18T16:50:27;8.20;1.00
9699;DHT22;10089;47.876;8.346;2023-02-18T16:52:54;8.20;1.00
9699;DHT22;10089;47.876;8.346;2023-02-18T16:55:22;8.20;1.00
9699;DHT22;10089;47.876;8.346;2023-02-18T16:57:48;8.10;1.00
9699;DHT22;10089;47.876;8.346;2023-02-18T17:00:15;8.10;1.00
9699;DHT22;10089;47.876;8.346;2023-02-18T17:02:43;8.00;1.00
9699;DHT22;10089;47.876;8.346;2023-02-18T17:05:20;8.10;1.00
9699;DHT22;10089;47.876;8.346;2023-02-18T17:07:46;8.00;1.00
9699;DHT22;10089;47.876;8.346;2023-02-18T17:10:12;8.00;1.00
9699;DHT22;10089;47.876;8.346;2023-02-18T17:12:38;8.00;1.00
9699;DHT22;10089;47.876;8.346;2023-02-18T17:17:47;7.90;50.30
9699;DHT22;10089;47.876;8.346;2023-02-18T17:20:13;7.80;61.50
9699;DHT22;10089;47.876;8.346;2023-02-18T17:22:40;7.80;99.90
9699;DHT22;10089;47.876;8.346;2023-02-18T17:25:13;7.80;99.90
9699;DHT22;10089;47.876;8.346;2023-02-18T17:27:41;7.80;99.90
9699;DHT22;10089;47.876;8.346;2023-02-18T17:30:07;7.80;99.90
9699;DHT22;10089;47.876;8.346;2023-02-18T17:32:33;7.80;99.90
9699;DHT22;10089;47.876;8.346;2023-02-18T17:34:59;7.70;99.90
9699;DHT22;10089;47.876;8.346;2023-02-18T17:37:31;7.70;99.90
9699;DHT22;10089;47.876;8.346;2023-02-18T17:39:56;7.70;99.90
9699;DHT22;10089;47.876;8.346;2023-02-18T17:42:22;7.60;99.90
9699;DHT22;10089;47.876;8.346;2023-02-18T17:44:48;7.60;99.90
9699;DHT22;10089;47.876;8.346;2023-02-18T17:47:14;7.60;99.90
9699;DHT22;10089;47.876;8.346;2023-02-18T17:49:47;7.50;99.90
9699;DHT22;10089;47.876;8.346;2023-02-18T17:52:27;7.60;99.90
9699;DHT22;10089;47.876;8.346;2023-02-18T17:54:53;7.60;99.90
9699;DHT22;10089;47.876;8.346;2023-02-18T17:57:19;7.50;99.90
9699;DHT22;10089;47.876;8.346;2023-02-18T17:59:44;7.50;99.90
9699;DHT22;10089;47.876;8.346;2023-02-18T18:02:28;7.60;99.90
9699;DHT22;10089;47.876;8.346;2023-02-18T18:05:00;7.50;99.90
9699;DHT22;10089;47.876;8.346;2023-02-18T18:07:26;7.50;99.90
9699;DHT22;10089;47.876;8.346;2023-02-18T18:09:51;7.50;99.90
9699;DHT22;10089;47.876;8.346;2023-02-18T18:12:17;7.40;99.90
9699;DHT22;10089;47.876;8.346;2023-02-18T18:14:43;7.50;99.90
9699;DHT22;10089;47.876;8.346;2023-02-18T18:17:12;7.50;99.90
9699;DHT22;10089;47.876;8.346;2023-02-18T18:19:39;7.40;1.00
9699;DHT22;10089;47.876;8.346;2023-02-18T18:22:06;7.60;1.00
9699;DHT22;10089;47.876;8.346;2023-02-18T18:24:32;7.50;99.90
9699;DHT22;10089;47.876;8.346;2023-02-18T18:26:58;7.50;1.00
9699;DHT22;10089;47.876;8.346;2023-02-18T18:29:24;7.50;1.00
9699;DHT22;10089;47.876;8.346;2023-02-18T18:31:49;7.40;1.00
9699;DHT22;10089;47.876;8.346;2023-02-18T18:34:15;7.40;1.00
9699;DHT22;10089;47.876;8.346;2023-02-18T18:36:41;7.40;1.00
9699;DHT22;10089;47.876;8.346;2023-02-18T18:39:08;7.40;1.00
9699;DHT22;10089;47.876;8.346;2023-02-18T18:41:33;7.40;1.00
9699;DHT22;10089;47.876;8.346;2023-02-18T18:43:59;7.30;1.00
9699;DHT22;10089;47.876;8.346;2023-02-18T18:46:25;7.30;1.00
9699;DHT22;10089;47.876;8.346;2023-02-18T18:48:50;7.40;1.00
9699;DHT22;10089;47.876;8.346;2023-02-18T18:51:27;7.30;1.00
9699;DHT22;10089;47.876;8.346;2023-02-18T18:53:54;7.30;1.00
9699;DHT22;10089;47.876;8.346;2023-02-18T18:56:19;7.20;1.00
9699;DHT22;10089;47.876;8.346;2023-02-18T18:58:47;7.20;1.00
9699;DHT22;10089;47.876;8.346;2023-02-18T19:01:16;7.10;1.00
9699;DHT22;10089;47.876;8.346;2023-02-18T19:03:44;7.20;1.00